Time;durP1;ratioP1;P1;durP2;ratioP2;P2;SDS_P1;SDS_P2;PMS_P1;PMS_P2;Temp;Humidity;BMP_temperature;BMP_pressure;BME280_temperature;BME280_humidity;BME280_pressure;Samples;Min_cycle;Max_cycle;Signal;HPM_P1;HPM_P2
2022/05/05 00:01:56;;;;;;;6.80;4.38;;;;;;;11.71;66.59;95013.03;4128704;28;20054;-53
2022/05/05 00:03:59;;;;;;;7.55;4.35;;;;;;;11.63;67.32;95019.88;4127895;28;20077;-52
2022/05/05 00:06:01;;;;;;;8.13;4.55;;;;;;;11.57;67.70;95014.44;4128278;28;20162;-51
2022/05/05 00:08:03;;;;;;;7.07;4.82;;;;;;;11.56;66.96;95005.75;4127074;28;20562;-52
2022/05/05 00:14:23;;;;;;;8.07;5.20;;;;;;;11.52;67.08;95009.66;4128321;28;20120;-54
2022/05/05 00:14:48;;;;;;;8.52;4.70;;;;;;;11.56;66.71;95000.50;4128269;28;20069;-52
2022/05/05 00:16:51;;;;;;;8.25;4.70;;;;;;;11.60;66.45;94998.41;4128171;28;20312;-54
2022/05/05 00:18:53;;;;;;;7.03;4.53;;;;;;;11.60;65.97;95004.47;4132371;28;20050;-55
2022/05/05 00:20:54;;;;;;;9.60;5.28;;;;;;;11.60;66.63;95008.91;4142915;28;20333;-52
2022/05/05 00:22:56;;;;;;;7.07;4.40;;;;;;;11.55;66.93;95009.38;4142916;28;20188;-53
2022/05/05 00:24:58;;;;;;;8.07;5.07;;;;;;;11.53;67.24;95011.31;4144429;28;20108;-54
2022/05/05 00:27:00;;;;;;;6.45;4.43;;;;;;;11.48;67.20;95009.16;4144450;28;20065;-53
2022/05/05 00:29:02;;;;;;;8.65;4.53;;;;;;;11.45;67.31;95001.59;4141027;28;20050;-48
2022/05/05 00:31:04;;;;;;;7.00;4.68;;;;;;;11.43;67.48;94994.88;4129490;28;20169;-52
2022/05/05 00:33:06;;;;;;;10.68;4.88;;;;;;;11.41;67.92;94995.03;4127643;28;20089;-51
2022/05/05 00:35:08;;;;;;;6.13;4.57;;;;;;;11.37;68.06;94995.50;4128026;28;20051;-52
2022/05/05 00:37:10;;;;;;;9.68;4.75;;;;;;;11.31;68.40;95007.44;4136607;28;20119;-53
2022/05/05 08:55:52;;;;;;;16.23;10.35;;;;;;;16.35;51.22;95162.66;3632777;28;20143;-52
2022/05/05 08:57:54;;;;;;;20.08;11.02;;;;;;;16.36;51.23;95159.00;4143616;28;20046;-58
2022/05/05 08:59:56;;;;;;;17.20;10.55;;;;;;;16.47;50.52;95160.38;4143744;28;20057;-54
2022/05/05 09:01:58;;;;;;;17.77;11.25;;;;;;;16.67;50.60;95155.34;4143784;28;20042;-56
2022/05/05 09:04:00;;;;;;;13.48;8.35;;;;;;;16.71;49.13;95153.13;4143542;28;20057;-54
2022/05/05 09:06:04;;;;;;;11.32;8.05;;;;;;;16.57;49.75;95157.44;4143770;28;20057;-54
2022/05/05 09:08:06;;;;;;;12.93;8.15;;;;;;;16.76;49.41;95151.56;4141677;28;20054;-54
2022/05/05 09:10:08;;;;;;;13.15;7.95;;;;;;;16.73;48.97;95151.91;4142103;28;20114;-57
2022/05/05 09:12:14;;;;;;;15.32;8.43;;;;;;;16.87;48.63;95150.28;4143745;28;20088;-54
2022/05/05 09:14:17;;;;;;;14.30;8.10;;;;;;;16.94;48.40;95147.72;4139187;28;20045;-52
2022/05/05 09:16:24;;;;;;;14.52;6.65;;;;;;;17.01;47.56;95145.13;4156939;28;20053;-53
2022/05/05 09:18:29;;;;;;;9.85;6.93;;;;;;;17.14;45.90;95153.22;4159812;28;20053;-55
2022/05/05 09:20:37;;;;;;;10.40;6.47;;;;;;;17.19;46.51;95143.69;4160130;28;20045;-55
2022/05/05 09:22:48;;;;;;;;;;;;;;;17.38;46.32;95146.75;4126744;28;20050;-54
2022/05/05 09:24:52;;;;;;;7.78;5.53;;;;;;;17.25;43.60;95147.44;4139165;28;19929;-53
2022/05/05 09:26:55;;;;;;;13.23;7.63;;;;;;;17.33;46.08;95147.28;4143292;28;20054;-55
2022/05/05 09:28:57;;;;;;;14.68;8.57;;;;;;;17.42;45.53;95142.69;4143300;28;20112;-58
2022/05/05 09:31:04;;;;;;;15.15;7.78;;;;;;;17.69;45.48;95142.91;4143324;28;20490;-56
2022/05/05 09:33:06;;;;;;;15.32;6.75;;;;;;;18.01;45.71;95137.03;4142921;28;20056;-55
2022/05/05 09:35:09;;;;;;;10.38;6.38;;;;;;;18.31;44.81;95139.47;4143422;28;20137;-59
2022/05/05 09:37:18;;;;;;;;;;;;;;;18.54;44.81;95138.34;4142807;28;20050;-55
2022/05/05 09:39:19;;;;;;;10.48;6.15;;;;;;;18.78;43.41;95135.22;4134137;28;20558;-53
2022/05/05 09:41:26;;;;;;;14.95;8.60;;;;;;;18.81;43.11;95136.66;4135799;28;20053;-59
2022/05/05 09:43:28;;;;;;;9.20;6.28;;;;;;;18.67;42.41;95135.75;4142946;28;20046;-55
2022/05/05 09:45:32;;;;;;;8.00;5.13;;;;;;;18.61;40.30;95136.56;4143180;28;20073;-52
2022/05/05 09:47:34;;;;;;;9.80;5.47;;;;;;;18.71;40.54;95134.31;4142858;28;20062;-55
2022/05/05 09:49:36;;;;;;;9.55;4.90;;;;;;;18.95;40.81;95126.88;4142655;28;20050;-55
2022/05/05 09:51:45;;;;;;;6.88;4.75;;;;;;;19.14;39.66;95125.28;4143020;28;20124;-54
2022/05/05 09:58:36;;;;;;;8.02;4.97;;;;;;;19.40;40.50;95127.16;4141403;28;20096;-57
2022/05/05 10:00:45;;;;;;;9.00;5.10;;;;;;;19.52;40.60;95122.88;4142911;28;20234;-56
2022/05/05 10:05:10;;;;;;;7.78;5.30;;;;;;;19.34;39.84;95112.84;4142136;28;20057;-53
2022/05/05 10:07:13;;;;;;;9.20;5.05;;;;;;;19.11;41.40;95115.06;4142687;28;20491;-53
2022/05/05 10:09:18;;;;;;;5.68;3.80;;;;;;;19.17;39.69;95114.28;4141203;28;20107;-55
2022/05/05 10:11:22;;;;;;;7.95;4.35;;;;;;;19.27;39.03;95116.50;4141210;28;20054;-53
2022/05/05 10:13:24;;;;;;;7.60;3.75;;;;;;;19.57;39.19;95120.41;4142273;28;20123;-52
2022/05/05 10:15:26;;;;;;;6.75;4.55;;;;;;;19.64;38.51;95117.78;4141281;28;20058;-55
2022/05/05 10:17:48;;;;;;;7.80;4.70;;;;;;;19.64;38.77;95110.63;4141153;28;20045;-53
2022/05/05 10:19:51;;;;;;;12.48;5.00;;;;;;;19.71;39.40;95109.81;4142242;28;20061;-55
2022/05/05 10:22:01;;;;;;;;;;;;;;;19.77;38.31;95109.00;4141525;28;20220;-54
2022/05/05 10:24:24;;;;;;;7.45;4.32;;;;;;;19.56;39.16;95120.63;4140743;28;20374;-55
2022/05/05 10:26:26;;;;;;;5.63;3.67;;;;;;;19.69;37.87;95122.47;4142380;28;20050;-55
2022/05/05 10:28:43;;;;;;;6.72;3.03;;;;;;;19.92;38.13;95117.56;4140980;28;20054;-52
2022/05/05 10:30:45;;;;;;;4.78;3.33;;;;;;;20.20;37.71;95116.50;4142494;28;20268;-54
2022/05/05 10:32:47;;;;;;;4.53;2.70;;;;;;;20.37;35.97;95120.34;4142391;28;20487;-55
2022/05/05 10:34:52;;;;;;;4.45;2.70;;;;;;;20.34;36.67;95115.41;4142063;28;20478;-55
2022/05/05 10:36:59;;;;;;;4.57;2.90;;;;;;;19.70;36.55;95118.81;4142403;28;20153;-53
2022/05/05 10:39:17;;;;;;;5.18;2.65;;;;;;;19.46;37.58;95113.06;4139239;28;20046;-54
2022/05/05 10:41:34;;;;;;;4.22;2.60;;;;;;;19.65;37.34;95119.41;4140068;28;20439;-56
2022/05/05 10:43:36;;;;;;;3.63;2.53;;;;;;;19.98;37.52;95108.78;4142104;28;20145;-53
2022/05/05 10:45:37;;;;;;;3.13;2.10;;;;;;;20.34;35.89;95115.41;4157321;28;20433;-53
2022/05/05 10:47:52;;;;;;;5.70;2.80;;;;;;;20.39;35.99;95115.63;4142270;28;20058;-54
2022/05/05 10:49:53;;;;;;;3.25;2.65;;;;;;;19.97;36.93;95117.75;4141959;28;20050;-55
2022/05/05 10:52:08;;;;;;;4.13;2.70;;;;;;;19.95;36.77;95117.16;4142046;28;20130;-57
2022/05/05 10:54:24;;;;;;;6.05;2.47;;;;;;;19.69;37.67;95111.84;4140736;28;20493;-53
2022/05/05 10:56:29;;;;;;;3.42;2.33;;;;;;;19.99;38.06;95114.91;4141845;28;20427;-54
2022/05/05 10:59:04;;;;;;;2.70;2.25;;;;;;;20.30;37.35;95110.72;4142184;28;20057;-56
2022/05/05 11:01:09;;;;;;;3.65;2.13;;;;;;;20.52;35.61;95116.59;4142158;28;20068;-53
2022/05/05 11:03:15;;;;;;;5.88;3.20;;;;;;;20.25;36.87;95119.34;4141862;28;20053;-52
2022/05/05 11:05:20;;;;;;;3.78;2.20;;;;;;;20.02;37.44;95109.16;4142219;28;20057;-54
2022/05/05 11:07:25;;;;;;;7.95;2.40;;;;;;;20.28;36.06;95118.91;4142109;28;20062;-55
2022/05/05 11:09:30;;;;;;;2.75;1.90;;;;;;;20.64;36.06;95109.63;4140652;28;20054;-53
2022/05/05 11:11:41;;;;;;;3.83;2.25;;;;;;;20.99;36.40;95117.22;4142162;28;20057;-54
2022/05/05 11:13:47;;;;;;;3.00;2.30;;;;;;;21.26;36.08;95116.03;4140775;28;20452;-57
2022/05/05 11:21:32;;;;;;;4.82;2.15;;;;;;;21.55;35.57;95110.31;4123247;28;20093;-56
2022/05/05 11:23:43;;;;;;;4.00;2.42;;;;;;;20.86;34.78;95110.97;4125208;28;20054;-52
2022/05/05 11:25:45;;;;;;;4.53;2.65;;;;;;;20.54;35.37;95114.53;4125753;28;20050;-56
2022/05/05 11:27:55;;;;;;;5.57;2.78;;;;;;;20.36;35.07;95112.56;4125900;28;20109;-56
2022/05/05 11:29:57;;;;;;;5.50;2.35;;;;;;;20.22;36.15;95111.78;4125867;28;20051;-56
2022/05/05 11:32:00;;;;;;;7.57;2.10;;;;;;;20.30;36.31;95118.72;4125735;28;20134;-56
2022/05/05 11:34:03;;;;;;;11.80;4.30;;;;;;;20.21;36.15;95110.16;4125628;28;20124;-55
2022/05/05 11:36:06;;;;;;;3.47;2.55;;;;;;;20.29;35.94;95120.56;4126040;28;20181;-53
2022/05/05 11:38:09;;;;;;;5.03;2.50;;;;;;;20.36;35.04;95117.88;4124535;28;20676;-54
2022/05/05 11:40:12;;;;;;;3.43;1.70;;;;;;;19.90;36.05;95108.97;4134393;28;20046;-55
2022/05/05 11:42:14;;;;;;;5.50;2.05;;;;;;;19.95;36.93;95111.84;4126791;28;20098;-53
2022/05/05 11:44:17;;;;;;;4.43;2.05;;;;;;;20.14;37.31;95114.66;4125577;28;20062;-54
2022/05/05 11:46:20;;;;;;;4.68;1.85;;;;;;;20.11;37.16;95117.72;4126715;28;20530;-54
2022/05/05 11:48:22;;;;;;;6.50;2.10;;;;;;;20.51;37.31;95120.28;4136593;28;20377;-52
2022/05/05 11:50:44;;;;;;;2.60;2.00;;;;;;;20.68;35.48;95113.50;4145151;28;20068;-54
2022/05/05 11:52:46;;;;;;;6.65;2.15;;;;;;;20.83;35.64;95111.38;4144831;28;20054;-56
2022/05/05 11:54:52;;;;;;;3.20;1.80;;;;;;;20.93;33.97;95110.06;4142148;28;20057;-56
2022/05/05 11:56:55;;;;;;;3.53;1.92;;;;;;;20.60;34.53;95103.06;4144578;28;20054;-53
2022/05/05 12:02:04;;;;;;;3.67;2.08;;;;;;;20.65;34.27;95097.97;4145027;28;20058;-57
2022/05/05 12:04:08;;;;;;;2.60;1.60;;;;;;;20.76;34.04;95091.94;4156949;28;20049;-54
2022/05/05 12:06:10;;;;;;;2.35;1.63;;;;;;;20.98;33.75;95094.28;4159319;28;20314;-55
2022/05/05 12:08:11;;;;;;;2.90;1.95;;;;;;;21.18;34.40;95092.31;4142995;28;20461;-52
2022/05/05 12:10:15;;;;;;;4.35;1.80;;;;;;;21.40;34.16;95092.78;4159659;28;20061;-56
2022/05/05 12:12:18;;;;;;;3.60;1.77;;;;;;;21.56;33.68;95095.97;4144607;28;20073;-55
2022/05/05 12:14:22;;;;;;;3.92;2.33;;;;;;;21.26;33.97;95092.03;4144663;28;20057;-56
2022/05/05 12:16:32;;;;;;;3.70;2.25;;;;;;;21.13;33.26;95081.50;4144511;28;20143;-53
2022/05/05 12:18:34;;;;;;;4.68;1.95;;;;;;;21.31;33.21;95093.25;4144159;28;20108;-55
2022/05/05 12:20:36;;;;;;;4.93;2.22;;;;;;;21.35;33.16;95089.13;4142855;28;20045;-56
2022/05/05 12:22:39;;;;;;;3.17;1.88;;;;;;;21.40;33.61;95090.13;4144105;28;20065;-54
2022/05/05 12:24:45;;;;;;;;;;;;;;;21.42;33.40;95087.25;4143418;28;20226;-52
2022/05/05 12:26:47;;;;;;;2.40;1.80;;;;;;;21.43;33.42;95089.69;4144355;28;19922;-53
2022/05/05 12:28:50;;;;;;;2.88;1.48;;;;;;;21.49;33.42;95096.03;4142798;28;20164;-54
2022/05/05 12:30:53;;;;;;;3.83;1.73;;;;;;;21.56;33.69;95088.78;4144198;28;20487;-55
2022/05/05 12:32:54;;;;;;;6.07;1.67;;;;;;;21.23;33.58;95089.00;4143889;28;20486;-54
2022/05/05 12:35:04;;;;;;;4.43;2.05;;;;;;;21.17;34.12;95090.69;4144062;28;20566;-55
2022/05/05 12:37:09;;;;;;;2.97;1.73;;;;;;;21.01;34.13;95084.00;4143592;28;20054;-54
2022/05/05 12:39:12;;;;;;;3.50;1.75;;;;;;;20.97;34.46;95082.00;4142589;28;20524;-54
2022/05/05 12:41:14;;;;;;;3.38;2.22;;;;;;;21.05;34.00;95082.56;4142357;28;20103;-55
2022/05/05 12:43:19;;;;;;;5.75;2.03;;;;;;;21.18;34.36;95086.97;4142212;28;20430;-52
2022/05/05 12:45:26;;;;;;;4.50;1.90;;;;;;;21.15;34.42;95079.44;4127936;28;20340;-57
2022/05/05 12:47:28;;;;;;;4.43;2.22;;;;;;;20.96;34.93;95089.16;4127830;28;20150;-55
2022/05/05 12:49:37;;;;;;;2.65;1.83;;;;;;;20.98;35.51;95089.78;4127550;28;20074;-56
2022/05/05 12:51:41;;;;;;;7.57;2.88;;;;;;;21.14;35.43;95088.44;4127702;28;20154;-53
2022/05/05 13:00:52;;;;;;;5.22;2.00;;;;;;;21.06;36.50;95080.72;4127891;28;20057;-55
2022/05/05 13:03:14;;;;;;;3.15;1.60;;;;;;;21.15;36.39;95068.78;4127484;28;20065;-52
2022/05/05 13:05:17;;;;;;;2.95;2.08;;;;;;;20.95;35.30;95062.75;4140943;28;20458;-57
2022/05/05 13:07:19;;;;;;;3.27;1.87;;;;;;;20.79;35.22;95069.41;4143381;28;20058;-52
2022/05/05 13:09:21;;;;;;;4.40;1.92;;;;;;;20.42;35.66;95074.47;4142224;28;20125;-51
2022/05/05 13:11:23;;;;;;;2.92;1.90;;;;;;;20.43;36.12;95065.44;4143577;28;20452;-56
2022/05/05 13:13:25;;;;;;;2.85;1.92;;;;;;;20.56;35.92;95069.91;4143514;28;20062;-53
2022/05/05 13:15:27;;;;;;;2.72;2.17;;;;;;;20.36;35.44;95062.81;4152057;28;20137;-53
2022/05/05 13:17:29;;;;;;;2.70;1.73;;;;;;;20.35;34.60;95063.84;4159937;28;20056;-51
2022/05/05 13:19:31;;;;;;;4.60;1.85;;;;;;;20.40;34.72;95064.03;4159434;28;20057;-54
2022/05/05 13:21:33;;;;;;;3.38;1.80;;;;;;;20.52;35.08;95058.03;4152404;28;20053;-55
2022/05/05 13:23:35;;;;;;;5.47;2.00;;;;;;;20.57;36.16;95063.56;4142006;28;20434;-53
2022/05/05 13:25:37;;;;;;;5.65;1.90;;;;;;;20.55;36.69;95057.63;4143399;28;20193;-53
2022/05/05 13:27:39;;;;;;;6.07;2.00;;;;;;;20.58;36.93;95062.53;4141915;28;20050;-53
2022/05/05 13:29:40;;;;;;;4.97;1.88;;;;;;;20.62;36.85;95063.75;4143485;28;20113;-53
2022/05/05 13:31:42;;;;;;;5.30;1.95;;;;;;;20.81;36.18;95060.16;4143176;28;20410;-55
2022/05/05 13:33:44;;;;;;;3.13;2.10;;;;;;;20.72;35.76;95058.78;4143051;28;20128;-54
2022/05/05 13:35:46;;;;;;;3.28;2.13;;;;;;;20.96;35.64;95065.19;4143084;28;20053;-54
2022/05/05 13:37:47;;;;;;;2.85;1.88;;;;;;;20.90;36.24;95067.91;4142865;28;20150;-54
2022/05/05 13:39:49;;;;;;;6.63;2.08;;;;;;;21.13;35.33;95062.84;4142206;28;20061;-53
2022/05/05 13:41:51;;;;;;;3.20;2.10;;;;;;;21.14;35.44;95066.31;4139074;28;20199;-54
2022/05/05 13:43:53;;;;;;;7.18;2.20;;;;;;;21.08;35.65;95062.69;4142273;28;20058;-56
2022/05/05 13:45:54;;;;;;;4.18;2.20;;;;;;;21.38;35.86;95068.19;4143251;28;21033;-56
2022/05/05 13:47:56;;;;;;;7.20;1.80;;;;;;;21.45;35.71;95071.66;4137709;28;20078;-56
2022/05/05 13:49:58;;;;;;;2.58;1.80;;;;;;;21.24;35.67;95072.00;4126754;28;20204;-58
2022/05/05 13:52:00;;;;;;;2.92;1.45;;;;;;;21.10;35.12;95071.28;4126609;28;20133;-53
2022/05/05 13:54:11;;;;;;;2.60;2.03;;;;;;;21.12;35.76;95079.84;4125253;28;20145;-55
2022/05/05 13:56:13;;;;;;;3.05;1.67;;;;;;;21.20;35.48;95076.91;4126351;28;20467;-53
2022/05/05 13:58:15;;;;;;;8.45;3.03;;;;;;;21.28;35.28;95071.34;4126774;28;20153;-54
2022/05/05 14:00:17;;;;;;;3.88;1.92;;;;;;;21.30;36.12;95076.44;4126445;28;20050;-57
2022/05/05 14:02:20;;;;;;;3.83;1.88;;;;;;;21.25;35.85;95074.44;4126221;28;20058;-52
2022/05/05 14:04:22;;;;;;;2.38;1.75;;;;;;;21.14;37.70;95071.66;4132315;28;20140;-56
2022/05/05 14:06:24;;;;;;;3.63;2.40;;;;;;;21.10;38.47;95070.44;4142022;28;20112;-54
2022/05/05 14:13:06;;;;;;;5.65;2.50;;;;;;;20.98;37.44;95075.66;4142204;28;20054;-54
2022/05/05 14:15:09;;;;;;;2.67;1.90;;;;;;;20.59;38.72;95080.16;4142269;28;20049;-53
2022/05/05 14:17:11;;;;;;;7.53;1.80;;;;;;;20.40;39.65;95093.28;4138408;28;20108;-54
2022/05/05 14:19:13;;;;;;;3.97;1.90;;;;;;;19.98;39.69;95091.97;4142139;28;20399;-55
2022/05/05 14:21:15;;;;;;;13.98;2.10;;;;;;;20.04;39.52;95089.31;4142094;28;20731;-56
2022/05/05 14:23:17;;;;;;;4.13;1.60;;;;;;;20.13;39.42;95103.19;4140839;28;20636;-54
2022/05/05 14:25:19;;;;;;;2.90;1.60;;;;;;;20.20;38.87;95105.88;4142402;28;20057;-54
2022/05/05 14:27:21;;;;;;;2.78;1.55;;;;;;;20.21;38.99;95094.19;4142627;28;20057;-54
2022/05/05 14:29:23;;;;;;;5.07;2.15;;;;;;;19.76;39.92;95097.53;4140454;28;20143;-56
2022/05/05 14:31:25;;;;;;;3.90;2.10;;;;;;;19.65;40.48;95092.81;4142029;28;20060;-53
2022/05/05 14:33:26;;;;;;;2.97;1.88;;;;;;;19.99;40.96;95102.41;4141785;28;20065;-52
2022/05/05 14:35:28;;;;;;;2.40;1.70;;;;;;;19.94;40.29;95114.69;4142278;28;20423;-54
2022/05/05 14:37:31;;;;;;;3.97;1.90;;;;;;;19.93;40.35;95116.53;4142375;28;20494;-56
2022/05/05 14:39:33;;;;;;;4.90;2.30;;;;;;;19.95;40.22;95114.50;4138520;28;20517;-53
2022/05/05 14:41:42;;;;;;;6.13;2.00;;;;;;;19.86;39.44;95110.41;4141674;28;20512;-56
2022/05/05 14:43:44;;;;;;;2.92;1.77;;;;;;;19.72;39.81;95114.91;4137502;28;20538;-52
2022/05/05 14:45:47;;;;;;;5.47;2.10;;;;;;;20.09;39.69;95117.97;4142250;28;20506;-53
2022/05/05 14:47:49;;;;;;;3.10;1.73;;;;;;;20.24;38.55;95115.03;4141938;28;21112;-54
2022/05/05 14:49:54;;;;;;;3.90;1.92;;;;;;;20.38;38.14;95105.19;4142009;28;20053;-55
2022/05/05 14:51:57;;;;;;;2.30;1.60;;;;;;;20.48;37.95;95110.03;4142420;28;20503;-56
2022/05/05 14:53:59;;;;;;;2.38;1.70;;;;;;;20.11;37.72;95104.44;4140473;28;20495;-57
2022/05/05 14:56:01;;;;;;;3.65;1.90;;;;;;;20.26;38.35;95107.66;4141892;28;20061;-54
2022/05/05 14:58:02;;;;;;;2.63;1.75;;;;;;;20.36;37.89;95099.25;4142247;28;20072;-52
2022/05/05 15:00:06;;;;;;;2.67;1.77;;;;;;;20.27;38.10;95093.34;4142175;28;20108;-56
2022/05/05 15:02:08;;;;;;;3.22;1.83;;;;;;;20.17;38.26;95103.59;4141942;28;20199;-54
2022/05/05 15:04:10;;;;;;;3.38;1.92;;;;;;;20.15;37.90;95097.66;4140226;28;20388;-57
2022/05/05 15:06:12;;;;;;;4.72;1.85;;;;;;;20.37;38.05;95082.25;4142372;28;20063;-55
2022/05/05 15:08:17;;;;;;;2.47;1.67;;;;;;;20.73;38.03;95092.38;4140787;28;20123;-56
2022/05/05 15:10:18;;;;;;;2.63;1.90;;;;;;;20.94;37.90;95090.44;4142167;28;20050;-54
2022/05/05 15:12:21;;;;;;;6.30;2.08;;;;;;;20.69;38.28;95098.31;4140222;28;20054;-55
2022/05/05 15:14:23;;;;;;;2.40;1.50;;;;;;;20.17;38.70;95088.44;4142015;28;20054;-54
2022/05/05 15:16:25;;;;;;;1.90;1.50;;;;;;;19.81;38.55;95104.88;4158305;28;20049;-53
2022/05/05 15:18:27;;;;;;;2.78;1.50;;;;;;;19.71;38.91;95096.53;4157769;28;20465;-53
2022/05/05 15:20:29;;;;;;;4.38;1.50;;;;;;;19.88;39.35;95084.44;4158357;28;20057;-54
2022/05/05 15:22:31;;;;;;;3.47;1.55;;;;;;;19.97;38.88;95098.34;4131425;28;20151;-51
2022/05/05 15:24:34;;;;;;;4.80;1.50;;;;;;;20.11;39.12;95086.66;4127573;28;20213;-51
2022/05/05 15:26:36;;;;;;;4.65;1.98;;;;;;;19.80;40.15;95095.28;4129281;28;20112;-54
2022/05/05 15:28:42;;;;;;;3.20;1.90;;;;;;;19.76;40.40;95091.41;4129025;28;20093;-53
2022/05/05 15:30:43;;;;;;;2.85;1.70;;;;;;;20.08;40.23;95094.22;4128769;28;20522;-54
2022/05/05 15:32:45;;;;;;;3.38;1.80;;;;;;;19.88;40.10;95089.75;4129047;28;20394;-51
2022/05/05 15:34:47;;;;;;;4.35;2.15;;;;;;;20.01;39.62;95081.75;4142931;28;20050;-54
2022/05/05 15:36:49;;;;;;;5.72;1.90;;;;;;;19.74;39.80;95086.28;4145190;28;20115;-54
2022/05/05 15:38:50;;;;;;;10.30;2.20;;;;;;;19.65;40.02;95069.72;4143406;28;20057;-56
2022/05/05 15:40:52;;;;;;;4.47;1.80;;;;;;;19.80;39.72;95076.69;4144988;28;20076;-51
2022/05/05 15:42:54;;;;;;;6.32;1.77;;;;;;;19.83;39.05;95081.56;4144657;28;20054;-53
2022/05/05 15:44:56;;;;;;;2.40;1.70;;;;;;;19.68;39.77;95078.28;4137233;28;20062;-54
2022/05/05 15:46:57;;;;;;;2.92;2.17;;;;;;;19.88;39.78;95073.00;4144773;28;20057;-54
2022/05/05 15:48:59;;;;;;;4.70;1.88;;;;;;;19.91;39.58;95073.38;4131364;28;20105;-52
2022/05/05 15:51:01;;;;;;;3.58;2.00;;;;;;;19.61;39.68;95078.31;4128744;28;20058;-53
2022/05/05 15:53:03;;;;;;;3.55;1.50;;;;;;;19.33;40.28;95075.88;4125730;28;20309;-52
2022/05/05 15:55:10;;;;;;;3.08;2.10;;;;;;;19.28;40.53;95078.31;4128545;28;20046;-53
2022/05/05 15:57:14;;;;;;;3.30;2.13;;;;;;;19.40;40.14;95080.16;4128567;28;20086;-52
2022/05/05 15:59:16;;;;;;;8.50;1.88;;;;;;;19.42;39.77;95080.78;4128378;28;20070;-56
2022/05/05 16:01:17;;;;;;;8.35;4.63;;;;;;;19.44;39.69;95081.41;4128202;28;20407;-54
2022/05/05 16:03:19;;;;;;;2.78;1.95;;;;;;;19.30;39.76;95081.59;4126672;28;20065;-53
2022/05/05 16:05:22;;;;;;;8.00;1.90;;;;;;;19.26;39.47;95091.81;4142866;28;20084;-54
2022/05/05 16:07:24;;;;;;;6.40;2.17;;;;;;;19.36;39.88;95086.91;4144696;28;20349;-55
2022/05/05 16:09:25;;;;;;;3.25;2.17;;;;;;;19.22;40.41;95094.03;4143265;28;20054;-55
2022/05/05 16:11:27;;;;;;;9.68;6.43;;;;;;;19.28;40.79;95097.72;4144078;28;20096;-57
2022/05/05 16:13:29;;;;;;;11.27;6.53;;;;;;;19.31;41.10;95101.81;4144414;28;20088;-54
2022/05/05 16:15:31;;;;;;;8.50;5.30;;;;;;;19.34;40.66;95096.91;4144420;28;20103;-55
2022/05/05 16:17:35;;;;;;;11.95;5.53;;;;;;;19.40;40.71;95095.28;4144823;28;20045;-53
2022/05/05 16:19:38;;;;;;;7.57;4.63;;;;;;;19.42;40.88;95099.38;4144364;28;20478;-53
2022/05/05 16:21:40;;;;;;;3.63;2.45;;;;;;;19.55;40.67;95095.06;4144136;28;20049;-53
2022/05/05 16:23:42;;;;;;;3.65;2.50;;;;;;;19.80;40.73;95093.44;4142739;28;20561;-53
2022/05/05 16:30:38;;;;;;;3.22;2.10;;;;;;;20.28;40.07;95094.97;4144407;28;20053;-54
2022/05/05 16:32:42;;;;;;;3.97;2.22;;;;;;;20.26;39.82;95105.00;4144056;28;20422;-53
2022/05/05 16:34:45;;;;;;;4.20;2.33;;;;;;;20.17;40.08;95106.25;4144238;28;20136;-54
2022/05/05 16:36:47;;;;;;;4.47;2.40;;;;;;;20.06;40.53;95102.41;4144289;28;20056;-53
2022/05/05 16:38:48;;;;;;;3.45;2.20;;;;;;;19.99;40.76;95102.41;4142960;28;20438;-51
2022/05/05 16:40:52;;;;;;;5.53;2.13;;;;;;;19.99;40.83;95105.06;4144411;28;20139;-54
2022/05/05 16:42:55;;;;;;;4.57;2.20;;;;;;;19.96;40.67;95105.50;4144251;28;20046;-54
2022/05/05 16:44:57;;;;;;;7.75;2.10;;;;;;;19.95;40.56;95105.69;4142722;28;20096;-53
2022/05/05 16:46:58;;;;;;;2.95;2.08;;;;;;;19.92;41.18;95095.47;4143464;28;20050;-52
2022/05/05 16:49:00;;;;;;;4.45;2.47;;;;;;;19.89;41.42;95104.69;4130736;28;20062;-53
2022/05/05 16:51:02;;;;;;;3.40;2.10;;;;;;;19.86;41.65;95106.94;4128003;28;20496;-53
2022/05/05 16:53:04;;;;;;;5.30;2.10;;;;;;;19.82;41.98;95106.53;4126458;28;20057;-54
2022/05/05 16:55:08;;;;;;;2.85;2.10;;;;;;;19.78;41.77;95113.28;4127897;28;20625;-56
2022/05/05 16:57:16;;;;;;;3.78;2.60;;;;;;;19.73;41.55;95113.09;4127908;28;20533;-53
2022/05/05 16:59:17;;;;;;;4.43;2.60;;;;;;;19.66;41.50;95118.38;4127514;28;20488;-55
2022/05/05 17:01:19;;;;;;;7.35;2.40;;;;;;;19.56;41.49;95107.34;4127992;28;20058;-55
2022/05/05 17:03:21;;;;;;;3.08;1.98;;;;;;;19.48;41.79;95111.00;4125998;28;20058;-55
2022/05/05 17:05:23;;;;;;;5.07;2.58;;;;;;;19.39;42.94;95107.75;4141029;28;20129;-53
2022/05/05 17:07:26;;;;;;;4.32;2.72;;;;;;;19.26;42.95;95109.59;4144054;28;20053;-55
2022/05/05 17:09:28;;;;;;;3.20;2.30;;;;;;;19.12;43.37;95117.53;4142512;28;20418;-54
2022/05/05 17:11:29;;;;;;;7.50;2.75;;;;;;;19.08;43.63;95115.47;4143876;28;20065;-59
2022/05/05 17:13:31;;;;;;;6.32;2.80;;;;;;;19.01;43.81;95121.59;4143790;28;20046;-56
2022/05/05 17:15:33;;;;;;;5.07;3.00;;;;;;;18.98;43.99;95121.97;4153273;28;20159;-55
2022/05/05 17:17:35;;;;;;;5.85;2.85;;;;;;;18.96;44.41;95129.31;4160129;28;20119;-56
2022/05/05 17:19:37;;;;;;;9.23;2.92;;;;;;;18.93;44.22;95131.56;4159792;28;20111;-56
2022/05/05 17:21:38;;;;;;;6.78;3.08;;;;;;;18.90;44.23;95129.31;4152244;28;20340;-56
2022/05/05 17:23:40;;;;;;;6.28;3.13;;;;;;;18.86;44.48;95128.06;4140881;28;20540;-52
2022/05/05 17:25:42;;;;;;;5.65;3.50;;;;;;;18.75;44.54;95135.56;4143941;28;20121;-55
2022/05/05 17:27:44;;;;;;;7.60;4.20;;;;;;;18.66;44.87;95136.75;4143417;28;20081;-53
2022/05/05 17:29:46;;;;;;;6.85;3.67;;;;;;;18.57;45.06;95141.41;4143815;28;20532;-50
2022/05/05 17:31:48;;;;;;;5.40;3.40;;;;;;;18.55;45.26;95145.28;4143500;28;20133;-55
2022/05/05 17:33:50;;;;;;;6.45;2.88;;;;;;;18.54;45.13;95135.69;4143195;28;20461;-53
2022/05/05 17:35:51;;;;;;;7.13;3.17;;;;;;;18.50;45.51;95137.94;4143717;28;20058;-57
2022/05/05 17:37:53;;;;;;;10.02;3.13;;;;;;;18.44;45.76;95135.25;4141474;28;20058;-55
2022/05/05 17:39:55;;;;;;;8.35;3.55;;;;;;;18.36;45.91;95129.06;4143164;28;20112;-54
2022/05/05 17:41:57;;;;;;;7.47;3.67;;;;;;;18.28;46.50;95142.50;4143316;28;20121;-54
2022/05/05 17:43:59;;;;;;;7.88;4.05;;;;;;;18.26;46.44;95138.41;4142536;28;20050;-52
2022/05/05 17:50:43;;;;;;;9.77;4.80;;;;;;;18.25;47.01;95142.09;4143609;28;20053;-56
2022/05/05 17:52:45;;;;;;;14.30;4.68;;;;;;;18.23;46.95;95144.94;4143396;28;20064;-52
2022/05/05 17:54:46;;;;;;;7.38;4.55;;;;;;;18.21;47.06;95139.00;4142028;28;20054;-59
2022/05/05 17:56:48;;;;;;;7.72;4.20;;;;;;;18.20;46.93;95142.69;4142866;28;20521;-53
2022/05/05 17:58:50;;;;;;;9.73;4.63;;;;;;;18.19;47.12;95143.69;4143328;28;20057;-52
2022/05/05 18:00:52;;;;;;;11.70;4.88;;;;;;;18.17;47.31;95151.00;4143192;28;20077;-54
2022/05/05 18:02:54;;;;;;;8.68;4.63;;;;;;;18.14;47.21;95152.22;4142265;28;20041;-54
2022/05/05 18:04:56;;;;;;;7.93;4.00;;;;;;;18.11;47.13;95152.63;4143172;28;20057;-55
2022/05/05 18:06:58;;;;;;;9.27;4.85;;;;;;;18.06;47.45;95155.00;4142978;28;20148;-51
2022/05/05 18:08:59;;;;;;;12.27;4.88;;;;;;;18.01;47.70;95158.25;4141771;28;20054;-53
2022/05/05 18:11:01;;;;;;;11.93;4.82;;;;;;;17.99;47.83;95154.97;4141532;28;20585;-51
2022/05/05 18:13:03;;;;;;;12.07;4.93;;;;;;;17.97;48.20;95158.84;4143033;28;20438;-56
2022/05/05 18:15:06;;;;;;;9.30;5.28;;;;;;;17.95;48.27;95159.03;4143289;28;20612;-53
2022/05/05 18:17:08;;;;;;;13.90;5.00;;;;;;;17.89;48.68;95157.13;4143117;28;20054;-56
2022/05/05 18:19:12;;;;;;;10.70;5.35;;;;;;;17.86;49.02;95154.88;4142899;28;20127;-55
2022/05/05 18:21:14;;;;;;;8.90;4.90;;;;;;;17.79;49.55;95160.13;4138473;28;20376;-54
2022/05/05 18:23:16;;;;;;;12.60;4.85;;;;;;;17.76;50.08;95170.28;4125113;28;20073;-54
2022/05/05 18:25:18;;;;;;;9.68;4.97;;;;;;;17.70;50.03;95165.72;4126624;28;20407;-55
2022/05/05 18:27:20;;;;;;;13.30;5.05;;;;;;;17.66;50.00;95167.13;4126758;28;20069;-54
2022/05/05 18:29:21;;;;;;;13.90;5.28;;;;;;;17.65;50.23;95168.16;4126924;28;20475;-52
2022/05/05 18:31:23;;;;;;;10.90;5.40;;;;;;;17.62;50.21;95174.66;4126742;28;20117;-55
2022/05/05 18:33:25;;;;;;;9.80;5.38;;;;;;;17.59;50.45;95175.00;4129516;28;20549;-50
2022/05/05 18:35:27;;;;;;;11.93;5.28;;;;;;;17.55;50.31;95171.09;4142804;28;20108;-54
2022/05/05 18:37:30;;;;;;;12.55;5.75;;;;;;;17.52;50.49;95174.97;4142998;28;20410;-55
2022/05/05 18:39:35;;;;;;;14.43;5.75;;;;;;;17.50;50.69;95174.34;4141079;28;20068;-55